TimeEST,TemperatureF,Dew PointF,Humidity,Sea Level PressureIn,VisibilityMPH,Wind Direction,Wind SpeedMPH,Gust SpeedMPH,PrecipitationIn,Events,Conditions,WindDirDegrees,DateUTC
1:54 AM,30.9,21.9,69,30.15,10.0,South,4.6,-,N/A,,Overcast,170,2013-01-16 06:54:00
2:54 AM,32.0,21.0,64,30.12,10.0,SE,6.9,-,N/A,,Mostly Cloudy,140,2013-01-16 07:54:00
3:54 AM,32.0,21.9,66,30.10,10.0,SE,4.6,-,N/A,,Mostly Cloudy,140,2013-01-16 08:54:00
4:54 AM,32.0,23.0,69,30.06,10.0,SSE,8.1,-,N/A,,Overcast,150,2013-01-16 09:54:00
5:54 AM,32.0,25.0,75,30.05,10.0,ESE,4.6,-,N/A,,Overcast,120,2013-01-16 10:54:00
6:54 AM,32.0,25.0,75,30.03,10.0,SSE,3.5,-,N/A,,Overcast,150,2013-01-16 11:54:00
7:54 AM,32.0,26.1,79,30.01,10.0,Calm,Calm,-,N/A,,Overcast,0,2013-01-16 12:54:00
8:54 AM,32.0,27.0,82,30.01,2.5,ESE,3.5,-,0.00,Snow,Light Snow,120,2013-01-16 13:54:00
9:26 AM,30.2,28.4,93,29.95,4.0,SSE,4.6,-,0.00,Snow,Light Snow,150,2013-01-16 14:26:00
9:54 AM,32.0,28.9,88,29.98,10.0,Calm,Calm,-,0.00,,Overcast,0,2013-01-16 14:54:00
10:54 AM,33.1,28.9,85,29.94,10.0,SSE,5.8,-,N/A,,Overcast,150,2013-01-16 15:54:00
11:54 AM,34.0,28.0,79,29.88,10.0,SSE,6.9,-,N/A,,Overcast,160,2013-01-16 16:54:00
12:54 PM,35.1,28.0,76,29.86,10.0,SSE,8.1,-,N/A,,Overcast,150,2013-01-16 17:54:00
1:54 PM,37.0,28.9,73,29.84,10.0,SSE,4.6,-,N/A,,Scattered Clouds,160,2013-01-16 18:54:00
2:54 PM,39.0,28.9,67,29.83,10.0,SSE,4.6,-,N/A,,Clear,160,2013-01-16 19:54:00
3:54 PM,41.0,28.9,62,29.83,10.0,Calm,Calm,-,N/A,,Mostly Cloudy,0,2013-01-16 20:54:00
4:54 PM,37.9,27.0,65,29.84,10.0,South,3.5,-,N/A,,Scattered Clouds,180,2013-01-16 21:54:00
5:54 PM,32.0,26.1,79,29.84,10.0,SSE,5.8,-,N/A,,Clear,160,2013-01-16 22:54:00
6:54 PM,30.9,27.0,85,29.87,10.0,SSE,8.1,-,N/A,,Clear,160,2013-01-16 23:54:00
7:54 PM,30.0,26.1,85,29.88,10.0,SE,6.9,-,N/A,,Clear,140,2013-01-17 00:54:00
8:54 PM,30.9,24.1,76,29.88,10.0,SSE,5.8,-,N/A,,Clear,160,2013-01-17 01:54:00
9:54 PM,32.0,21.9,66,29.89,10.0,Calm,Calm,-,N/A,,Scattered Clouds,0,2013-01-17 02:54:00
10:54 PM,33.1,24.1,70,29.88,10.0,South,4.6,-,N/A,,Overcast,170,2013-01-17 03:54:00
11:54 PM,37.0,19.9,50,29.91,10.0,Variable,3.5,-,N/A,,Overcast,0,2013-01-17 04:54:00